sensor_id;sensor_type;location;lat;lon;timestamp;pressure;altitude;pressure_sealevel;temperature;humidity
13709;BME280;54933;51.908;7.730;2022-09-21T00:00:22;101935.69;;;23.08;74.07
13709;BME280;54933;51.908;7.730;2022-09-21T00:02:47;101941.09;;;23.08;74.27
13709;BME280;54933;51.908;7.730;2022-09-21T00:05:13;101933.97;;;23.07;73.99
13709;BME280;54933;51.908;7.730;2022-09-21T00:07:38;101946.53;;;23.08;74.03
13709;BME280;54933;51.908;7.730;2022-09-21T00:10:04;101946.53;;;23.08;74.28
13709;BME280;54933;51.908;7.730;2022-09-21T00:12:29;101935.69;;;23.08;74.22
13709;BME280;54933;51.908;7.730;2022-09-21T00:14:55;101941.09;;;23.08;73.93
13709;BME280;54933;51.908;7.730;2022-09-21T00:17:21;101941.09;;;23.08;74.38
13709;BME280;54933;51.908;7.730;2022-09-21T00:19:46;101941.09;;;23.08;74.21
13709;BME280;54933;51.908;7.730;2022-09-21T00:22:11;101948.38;;;23.08;74.08
13709;BME280;54933;51.908;7.730;2022-09-21T00:24:37;101941.09;;;23.08;74.24
13709;BME280;54933;51.908;7.730;2022-09-21T00:27:02;101934.84;;;23.08;74.19
13709;BME280;54933;51.908;7.730;2022-09-21T00:29:27;101946.53;;;23.08;74.33
13709;BME280;54933;51.908;7.730;2022-09-21T00:31:53;101947.53;;;23.07;74.21
13709;BME280;54933;51.908;7.730;2022-09-21T00:34:18;101945.69;;;23.08;74.25
13709;BME280;54933;51.908;7.730;2022-09-21T00:36:43;101946.53;;;23.08;74.45
13709;BME280;54933;51.908;7.730;2022-09-21T00:39:09;101950.25;;;23.07;74.24
13709;BME280;54933;51.908;7.730;2022-09-21T00:41:34;101950.25;;;23.07;74.19
13709;BME280;54933;51.908;7.730;2022-09-21T00:44:22;101953.81;;;23.08;74.32
13709;BME280;54933;51.908;7.730;2022-09-21T00:46:50;101951.09;;;23.08;74.48
13709;BME280;54933;51.908;7.730;2022-09-21T00:49:17;101957.38;;;23.08;74.25
13709;BME280;54933;51.908;7.730;2022-09-21T00:51:43;101956.53;;;23.08;74.37
13709;BME280;54933;51.908;7.730;2022-09-21T00:54:13;101961.09;;;23.07;74.68
13709;BME280;54933;51.908;7.730;2022-09-21T00:56:41;101961.94;;;23.08;74.37
13709;BME280;54933;51.908;7.730;2022-09-21T00:59:08;101962.78;;;23.08;74.60
13709;BME280;54933;51.908;7.730;2022-09-21T01:01:34;101961.94;;;23.08;74.33
13709;BME280;54933;51.908;7.730;2022-09-21T01:04:02;101967.38;;;23.08;74.43
13709;BME280;54933;51.908;7.730;2022-09-21T01:06:27;101966.53;;;23.07;74.28
13709;BME280;54933;51.908;7.730;2022-09-21T01:08:54;101961.09;;;23.07;74.57
13709;BME280;54933;51.908;7.730;2022-09-21T01:16:45;101966.53;;;23.07;74.35
13709;BME280;54933;51.908;7.730;2022-09-21T01:22:01;101966.53;;;23.07;74.45
13709;BME280;54933;51.908;7.730;2022-09-21T01:24:44;101967.38;;;23.08;74.32
13709;BME280;54933;51.908;7.730;2022-09-21T01:27:45;101970.06;;;23.08;74.85
13709;BME280;54933;51.908;7.730;2022-09-21T01:30:16;101974.66;;;23.07;74.65
13709;BME280;54933;51.908;7.730;2022-09-21T01:32:51;101973.84;;;23.07;74.52
13709;BME280;54933;51.908;7.730;2022-09-21T01:35:23;101971.13;;;23.07;74.48
13709;BME280;54933;51.908;7.730;2022-09-21T01:38:01;101981.13;;;23.06;74.57
13709;BME280;54933;51.908;7.730;2022-09-21T01:40:32;101973.00;;;23.06;74.44
13709;BME280;54933;51.908;7.730;2022-09-21T01:43:00;101983.63;;;23.08;74.32
13709;BME280;54933;51.908;7.730;2022-09-21T01:45:31;101981.13;;;23.06;74.30
13709;BME280;54933;51.908;7.730;2022-09-21T01:47:59;101971.94;;;23.07;74.24
13709;BME280;54933;51.908;7.730;2022-09-21T01:50:31;101973.00;;;23.06;74.35
13709;BME280;54933;51.908;7.730;2022-09-21T01:53:19;101971.94;;;23.07;74.48
13709;BME280;54933;51.908;7.730;2022-09-21T01:55:51;101971.94;;;23.07;74.33
13709;BME280;54933;51.908;7.730;2022-09-21T01:58:29;101978.22;;;23.08;74.35
13709;BME280;54933;51.908;7.730;2022-09-21T02:00:58;101980.94;;;23.08;74.24
13709;BME280;54933;51.908;7.730;2022-09-21T02:03:28;101983.63;;;23.08;74.71
13709;BME280;54933;51.908;7.730;2022-09-21T02:05:55;101980.06;;;23.07;74.52
13709;BME280;54933;51.908;7.730;2022-09-21T02:08:22;101974.66;;;23.07;74.29
13709;BME280;54933;51.908;7.730;2022-09-21T02:10:51;101982.78;;;23.07;74.19
13709;BME280;54933;51.908;7.730;2022-09-21T02:13:17;101977.38;;;23.07;74.47
13709;BME280;54933;51.908;7.730;2022-09-21T02:15:59;101984.47;;;23.08;74.44
13709;BME280;54933;51.908;7.730;2022-09-21T02:24:21;101980.06;;;23.07;74.51
13709;BME280;54933;51.908;7.730;2022-09-21T02:26:54;101977.38;;;23.07;74.56
13709;BME280;54933;51.908;7.730;2022-09-21T02:29:36;101976.34;;;23.08;74.20
13709;BME280;54933;51.908;7.730;2022-09-21T02:32:08;101975.50;;;23.08;74.25
13709;BME280;54933;51.908;7.730;2022-09-21T02:34:47;101967.38;;;23.08;74.34
13709;BME280;54933;51.908;7.730;2022-09-21T02:39:59;101970.94;;;23.08;74.35
13709;BME280;54933;51.908;7.730;2022-09-21T02:42:32;101963.81;;;23.07;74.49
13709;BME280;54933;51.908;7.730;2022-09-21T02:45:20;101967.38;;;23.08;74.19
13709;BME280;54933;51.908;7.730;2022-09-21T02:50:22;101971.94;;;23.07;74.07
13709;BME280;54933;51.908;7.730;2022-09-21T02:52:50;101969.44;;;23.06;74.33
13709;BME280;54933;51.908;7.730;2022-09-21T02:55:17;101968.22;;;23.08;74.57
13709;BME280;54933;51.908;7.730;2022-09-21T02:57:44;101969.22;;;23.07;74.48
13709;BME280;54933;51.908;7.730;2022-09-21T03:00:14;101971.94;;;23.07;74.28
13709;BME280;54933;51.908;7.730;2022-09-21T03:02:42;101978.22;;;23.08;74.38
13709;BME280;54933;51.908;7.730;2022-09-21T03:05:09;101966.53;;;23.07;74.59
13709;BME280;54933;51.908;7.730;2022-09-21T03:07:35;101966.53;;;23.07;74.34
13709;BME280;54933;51.908;7.730;2022-09-21T03:10:00;101971.94;;;23.07;74.39
13709;BME280;54933;51.908;7.730;2022-09-21T03:12:25;101980.06;;;23.07;74.28
13709;BME280;54933;51.908;7.730;2022-09-21T03:14:51;101971.94;;;23.07;74.51
13709;BME280;54933;51.908;7.730;2022-09-21T03:17:17;101965.50;;;23.08;74.69
13709;BME280;54933;51.908;7.730;2022-09-21T03:19:42;101965.72;;;23.07;74.47
13709;BME280;54933;51.908;7.730;2022-09-21T03:22:07;101971.94;;;23.07;74.45
13709;BME280;54933;51.908;7.730;2022-09-21T03:24:33;101977.38;;;23.07;74.22
13709;BME280;54933;51.908;7.730;2022-09-21T03:27:14;101975.72;;;23.06;74.26
13709;BME280;54933;51.908;7.730;2022-09-21T03:29:40;101981.13;;;23.06;74.45
13709;BME280;54933;51.908;7.730;2022-09-21T03:32:05;101981.13;;;23.06;74.56
13709;BME280;54933;51.908;7.730;2022-09-21T03:34:31;101976.56;;;23.07;74.38
13709;BME280;54933;51.908;7.730;2022-09-21T03:36:58;101983.84;;;23.06;74.26
13709;BME280;54933;51.908;7.730;2022-09-21T03:39:23;101977.38;;;23.07;74.30
13709;BME280;54933;51.908;7.730;2022-09-21T03:41:48;101981.97;;;23.07;74.17
13709;BME280;54933;51.908;7.730;2022-09-21T03:44:14;101983.84;;;23.06;74.26
13709;BME280;54933;51.908;7.730;2022-09-21T03:46:41;101983.84;;;23.06;74.09
13709;BME280;54933;51.908;7.730;2022-09-21T03:49:07;101981.13;;;23.06;74.34
13709;BME280;54933;51.908;7.730;2022-09-21T03:51:32;101980.28;;;23.06;74.35
13709;BME280;54933;51.908;7.730;2022-09-21T03:53:57;101981.13;;;23.06;74.55
13709;BME280;54933;51.908;7.730;2022-09-21T03:56:23;101979.25;;;23.07;74.35
13709;BME280;54933;51.908;7.730;2022-09-21T03:58:48;101979.47;;;23.05;74.44
13709;BME280;54933;51.908;7.730;2022-09-21T04:01:14;101979.47;;;23.05;74.48
13709;BME280;54933;51.908;7.730;2022-09-21T04:03:39;101974.03;;;23.05;74.31
13709;BME280;54933;51.908;7.730;2022-09-21T04:06:08;101983.84;;;23.06;74.16
13709;BME280;54933;51.908;7.730;2022-09-21T04:08:34;101988.41;;;23.06;73.91
13709;BME280;54933;51.908;7.730;2022-09-21T04:10:59;101986.56;;;23.06;74.28
13709;BME280;54933;51.908;7.730;2022-09-21T04:13:24;101987.59;;;23.05;74.30
13709;BME280;54933;51.908;7.730;2022-09-21T04:15:49;101989.47;;;23.05;74.28
13709;BME280;54933;51.908;7.730;2022-09-21T04:18:15;101991.97;;;23.06;74.07
13709;BME280;54933;51.908;7.730;2022-09-21T04:20:40;101985.69;;;23.06;73.98
13709;BME280;54933;51.908;7.730;2022-09-21T04:23:05;101986.56;;;23.06;73.96
13709;BME280;54933;51.908;7.730;2022-09-21T04:25:33;101991.97;;;23.06;74.17
13709;BME280;54933;51.908;7.730;2022-09-21T04:27:59;101991.13;;;23.06;74.05
13709;BME280;54933;51.908;7.730;2022-09-21T04:30:25;101991.97;;;23.06;74.33
13709;BME280;54933;51.908;7.730;2022-09-21T04:32:50;101978.63;;;23.05;74.20
13709;BME280;54933;51.908;7.730;2022-09-21T04:35:15;101995.72;;;23.05;74.29
13709;BME280;54933;51.908;7.730;2022-09-21T04:37:41;101990.31;;;23.05;74.28
13709;BME280;54933;51.908;7.730;2022-09-21T04:40:06;101987.59;;;23.05;74.28
13709;BME280;54933;51.908;7.730;2022-09-21T04:42:32;101983.00;;;23.06;74.11
13709;BME280;54933;51.908;7.730;2022-09-21T04:44:58;101986.56;;;23.06;73.95
13709;BME280;54933;51.908;7.730;2022-09-21T04:47:23;101991.13;;;23.06;74.22
13709;BME280;54933;51.908;7.730;2022-09-21T04:49:49;101990.31;;;23.05;74.09
13709;BME280;54933;51.908;7.730;2022-09-21T04:52:15;101991.13;;;23.06;74.23
13709;BME280;54933;51.908;7.730;2022-09-21T04:54:40;102001.16;;;23.05;74.24
13709;BME280;54933;51.908;7.730;2022-09-21T04:57:06;101996.75;;;23.04;74.23
13709;BME280;54933;51.908;7.730;2022-09-21T04:59:31;101998.81;;;23.02;74.11
13709;BME280;54933;51.908;7.730;2022-09-21T05:01:56;102002.38;;;23.03;74.16
13709;BME280;54933;51.908;7.730;2022-09-21T05:04:21;102011.34;;;23.03;74.25
13709;BME280;54933;51.908;7.730;2022-09-21T05:06:47;102009.66;;;23.02;74.16
13709;BME280;54933;51.908;7.730;2022-09-21T05:09:12;102011.34;;;23.03;73.95
13709;BME280;54933;51.908;7.730;2022-09-21T05:11:56;102017.63;;;23.04;74.24
13709;BME280;54933;51.908;7.730;2022-09-21T05:14:21;102014.06;;;23.03;74.26
13709;BME280;54933;51.908;7.730;2022-09-21T05:16:47;102017.78;;;23.02;74.14
13709;BME280;54933;51.908;7.730;2022-09-21T05:19:14;102025.75;;;23.04;74.23
13709;BME280;54933;51.908;7.730;2022-09-21T05:21:39;102019.50;;;23.03;74.17
13709;BME280;54933;51.908;7.730;2022-09-21T05:24:04;102022.41;;;23.02;73.94
13709;BME280;54933;51.908;7.730;2022-09-21T05:26:30;102034.06;;;23.02;74.08
13709;BME280;54933;51.908;7.730;2022-09-21T05:28:55;102023.78;;;22.91;73.51
13709;BME280;54933;51.908;7.730;2022-09-21T05:34:30;102033.22;;;22.95;72.10
13709;BME280;54933;51.908;7.730;2022-09-21T05:37:05;102033.84;;;22.97;72.69
13709;BME280;54933;51.908;7.730;2022-09-21T05:39:32;102031.97;;;22.98;72.39
13709;BME280;54933;51.908;7.730;2022-09-21T05:41:57;102037.19;;;22.99;72.53
13709;BME280;54933;51.908;7.730;2022-09-21T05:44:23;102039.88;;;22.99;73.19
13709;BME280;54933;51.908;7.730;2022-09-21T05:47:06;102041.59;;;23.00;72.81
13709;BME280;54933;51.908;7.730;2022-09-21T05:49:45;102040.53;;;23.01;73.16
13709;BME280;54933;51.908;7.730;2022-09-21T05:52:26;102044.28;;;23.00;73.43
13709;BME280;54933;51.908;7.730;2022-09-21T05:55:03;102044.28;;;23.00;73.35
13709;BME280;54933;51.908;7.730;2022-09-21T05:57:50;102045.97;;;23.01;73.21
13709;BME280;54933;51.908;7.730;2022-09-21T06:00:21;102043.25;;;23.01;73.36
13709;BME280;54933;51.908;7.730;2022-09-21T06:03:19;102048.66;;;23.01;73.24
13709;BME280;54933;51.908;7.730;2022-09-21T06:05:48;102044.91;;;23.02;73.54
13709;BME280;54933;51.908;7.730;2022-09-21T06:08:13;102048.66;;;23.01;73.44
13709;BME280;54933;51.908;7.730;2022-09-21T06:10:38;102054.94;;;23.02;73.60
13709;BME280;54933;51.908;7.730;2022-09-21T06:13:04;102049.31;;;23.03;73.65
13709;BME280;54933;51.908;7.730;2022-09-21T06:15:29;102061.81;;;23.04;73.15
13709;BME280;54933;51.908;7.730;2022-09-21T06:17:54;102052.03;;;23.03;73.46
13709;BME280;54933;51.908;7.730;2022-09-21T06:20:20;102053.69;;;23.04;73.48
13709;BME280;54933;51.908;7.730;2022-09-21T06:22:45;102059.97;;;23.05;73.61
13709;BME280;54933;51.908;7.730;2022-09-21T06:25:10;102061.00;;;23.04;73.63
13709;BME280;54933;51.908;7.730;2022-09-21T06:27:35;102058.28;;;23.04;73.60
13709;BME280;54933;51.908;7.730;2022-09-21T06:30:01;102068.28;;;23.03;73.69
13709;BME280;54933;51.908;7.730;2022-09-21T06:32:26;102065.78;;;23.02;73.86
13709;BME280;54933;51.908;7.730;2022-09-21T06:34:52;102061.19;;;23.02;73.62
13709;BME280;54933;51.908;7.730;2022-09-21T06:37:17;102064.94;;;23.01;73.94
13709;BME280;54933;51.908;7.730;2022-09-21T06:39:43;102060.34;;;23.02;73.74
13709;BME280;54933;51.908;7.730;2022-09-21T06:42:08;102064.94;;;23.01;73.58
13709;BME280;54933;51.908;7.730;2022-09-21T06:44:33;102062.88;;;23.03;73.88
13709;BME280;54933;51.908;7.730;2022-09-21T06:46:58;102070.34;;;23.01;73.93
13709;BME280;54933;51.908;7.730;2022-09-21T06:49:24;102072.88;;;23.03;73.65
13709;BME280;54933;51.908;7.730;2022-09-21T06:51:52;102065.78;;;23.02;74.11
13709;BME280;54933;51.908;7.730;2022-09-21T06:54:17;102059.50;;;23.01;73.98
13709;BME280;54933;51.908;7.730;2022-09-21T06:56:43;102072.03;;;23.02;73.72
13709;BME280;54933;51.908;7.730;2022-09-21T06:59:08;102071.19;;;23.02;73.71
13709;BME280;54933;51.908;7.730;2022-09-21T07:01:34;102067.66;;;23.01;73.84
13709;BME280;54933;51.908;7.730;2022-09-21T07:03:59;102070.34;;;23.01;74.14
13709;BME280;54933;51.908;7.730;2022-09-21T07:06:24;102064.09;;;23.01;73.89
13709;BME280;54933;51.908;7.730;2022-09-21T07:08:52;102064.94;;;23.01;73.87
13709;BME280;54933;51.908;7.730;2022-09-21T07:11:18;102065.78;;;23.02;73.97
13709;BME280;54933;51.908;7.730;2022-09-21T07:13:44;102071.41;;;23.00;73.76
13709;BME280;54933;51.908;7.730;2022-09-21T07:16:10;102075.78;;;23.01;73.84
13709;BME280;54933;51.908;7.730;2022-09-21T07:18:38;102078.50;;;23.01;73.89
13709;BME280;54933;51.908;7.730;2022-09-21T07:21:05;102075.78;;;23.01;74.35
13709;BME280;54933;51.908;7.730;2022-09-21T07:23:31;102077.44;;;23.02;73.97
13709;BME280;54933;51.908;7.730;2022-09-21T07:26:00;102081.19;;;23.01;74.03
13709;BME280;54933;51.908;7.730;2022-09-21T07:28:26;102077.44;;;23.02;73.95
13709;BME280;54933;51.908;7.730;2022-09-21T07:30:51;102082.00;;;22.95;73.06
13709;BME280;54933;51.908;7.730;2022-09-21T07:33:16;102070.91;;;22.90;72.23
13709;BME280;54933;51.908;7.730;2022-09-21T07:35:50;102089.22;;;22.60;70.76
13709;BME280;54933;51.908;7.730;2022-09-21T07:38:15;102074.88;;;22.66;69.89
13709;BME280;54933;51.908;7.730;2022-09-21T07:40:40;102083.50;;;22.76;69.81
13709;BME280;54933;51.908;7.730;2022-09-21T07:43:06;102084.81;;;22.80;69.45
13709;BME280;54933;51.908;7.730;2022-09-21T07:45:31;102089.19;;;22.81;69.60
13709;BME280;54933;51.908;7.730;2022-09-21T07:48:03;102080.59;;;22.78;69.44
13709;BME280;54933;51.908;7.730;2022-09-21T07:50:29;102076.03;;;22.78;69.17
13709;BME280;54933;51.908;7.730;2022-09-21T07:52:54;102082.31;;;22.79;69.34
13709;BME280;54933;51.908;7.730;2022-09-21T07:55:19;102077.91;;;22.78;69.23
13709;BME280;54933;51.908;7.730;2022-09-21T07:57:45;102072.72;;;22.83;69.20
13709;BME280;54933;51.908;7.730;2022-09-21T08:00:31;102078.53;;;22.80;69.47
13709;BME280;54933;51.908;7.730;2022-09-21T08:02:58;102074.78;;;22.81;69.28
13709;BME280;54933;51.908;7.730;2022-09-21T08:05:25;102073.78;;;22.82;69.12
13709;BME280;54933;51.908;7.730;2022-09-21T08:07:54;102071.25;;;22.80;69.59
13709;BME280;54933;51.908;7.730;2022-09-21T08:10:19;102074.38;;;22.77;69.29
13709;BME280;54933;51.908;7.730;2022-09-21T08:12:44;102068.09;;;22.77;69.36
13709;BME280;54933;51.908;7.730;2022-09-21T08:15:10;102073.53;;;22.77;69.39
13709;BME280;54933;51.908;7.730;2022-09-21T08:17:37;102077.19;;;22.69;69.48
13709;BME280;54933;51.908;7.730;2022-09-21T08:20:02;102078.03;;;22.70;69.39
13709;BME280;54933;51.908;7.730;2022-09-21T08:22:28;102083.72;;;22.75;69.92
13709;BME280;54933;51.908;7.730;2022-09-21T08:24:53;102090.94;;;22.68;70.04
13709;BME280;54933;51.908;7.730;2022-09-21T08:27:19;102086.19;;;22.70;70.06
13709;BME280;54933;51.908;7.730;2022-09-21T08:29:44;102081.00;;;22.75;70.39
13709;BME280;54933;51.908;7.730;2022-09-21T08:32:10;102083.06;;;22.73;70.24
13709;BME280;54933;51.908;7.730;2022-09-21T08:34:35;102083.50;;;22.76;70.16
13709;BME280;54933;51.908;7.730;2022-09-21T08:37:00;102087.88;;;22.71;70.21
13709;BME280;54933;51.908;7.730;2022-09-21T08:39:25;102085.53;;;22.68;70.39
13709;BME280;54933;51.908;7.730;2022-09-21T08:42:09;102086.78;;;22.65;70.21
13709;BME280;54933;51.908;7.730;2022-09-21T08:44:38;102086.38;;;22.68;70.49
13709;BME280;54933;51.908;7.730;2022-09-21T08:47:12;102087.22;;;22.69;70.34
13709;BME280;54933;51.908;7.730;2022-09-21T08:49:40;102092.63;;;22.69;70.55
13709;BME280;54933;51.908;7.730;2022-09-21T08:52:10;102085.78;;;22.73;70.68
13709;BME280;54933;51.908;7.730;2022-09-21T08:57:22;102091.00;;;22.74;70.33
13709;BME280;54933;51.908;7.730;2022-09-21T08:59:50;102089.13;;;22.75;70.51
13709;BME280;54933;51.908;7.730;2022-09-21T09:05:22;102088.09;;;22.76;70.32
13709;BME280;54933;51.908;7.730;2022-09-21T09:13:25;102083.31;;;22.78;70.72
13709;BME280;54933;51.908;7.730;2022-09-21T09:16:21;102088.53;;;22.79;70.62
13709;BME280;54933;51.908;7.730;2022-09-21T09:18:54;102087.72;;;22.79;70.85
13709;BME280;54933;51.908;7.730;2022-09-21T09:21:25;102085.81;;;22.79;71.08
13709;BME280;54933;51.908;7.730;2022-09-21T09:23:57;102081.47;;;22.78;71.27
13709;BME280;54933;51.908;7.730;2022-09-21T09:26:43;102084.81;;;22.80;71.38
13709;BME280;54933;51.908;7.730;2022-09-21T09:31:39;102092.75;;;22.82;71.52
13709;BME280;54933;51.908;7.730;2022-09-21T09:37:04;102090.03;;;22.82;71.67
13709;BME280;54933;51.908;7.730;2022-09-21T09:39:33;102089.38;;;22.80;71.92
13709;BME280;54933;51.908;7.730;2022-09-21T09:50:40;102087.13;;;22.83;72.08
13709;BME280;54933;51.908;7.730;2022-09-21T09:53:16;102091.69;;;22.83;72.29
13709;BME280;54933;51.908;7.730;2022-09-21T09:55:47;102093.19;;;22.86;72.46
13709;BME280;54933;51.908;7.730;2022-09-21T09:58:45;102081.50;;;22.85;72.55
13709;BME280;54933;51.908;7.730;2022-09-21T10:01:41;102081.31;;;22.87;72.43
13709;BME280;54933;51.908;7.730;2022-09-21T10:04:11;102086.72;;;22.87;72.62
13709;BME280;54933;51.908;7.730;2022-09-21T10:06:37;102077.75;;;22.86;72.49
13709;BME280;54933;51.908;7.730;2022-09-21T10:09:31;102082.97;;;22.88;72.80
13709;BME280;54933;51.908;7.730;2022-09-21T10:12:03;102088.38;;;22.88;72.79
13709;BME280;54933;51.908;7.730;2022-09-21T10:14:47;102090.28;;;22.87;72.84
13709;BME280;54933;51.908;7.730;2022-09-21T10:17:15;102083.16;;;22.86;72.74
13709;BME280;54933;51.908;7.730;2022-09-21T10:19:42;102076.94;;;22.86;72.99
13709;BME280;54933;51.908;7.730;2022-09-21T10:22:15;102068.59;;;22.87;72.99
13709;BME280;54933;51.908;7.730;2022-09-21T10:24:46;102075.69;;;22.88;73.19
13709;BME280;54933;51.908;7.730;2022-09-21T10:27:15;102075.69;;;22.88;73.32
13709;BME280;54933;51.908;7.730;2022-09-21T10:29:48;102070.25;;;22.88;73.35
13709;BME280;54933;51.908;7.730;2022-09-21T10:32:28;102077.34;;;22.89;73.44
13709;BME280;54933;51.908;7.730;2022-09-21T10:37:36;102079.25;;;22.89;73.42
13709;BME280;54933;51.908;7.730;2022-09-21T10:40:04;102079.03;;;22.90;73.40
13709;BME280;54933;51.908;7.730;2022-09-21T10:42:57;102075.50;;;22.90;73.47
13709;BME280;54933;51.908;7.730;2022-09-21T10:45:31;102077.34;;;22.89;73.21
13709;BME280;54933;51.908;7.730;2022-09-21T10:50:40;102076.34;;;22.90;73.59
13709;BME280;54933;51.908;7.730;2022-09-21T10:55:41;102069.22;;;22.89;73.60
13709;BME280;54933;51.908;7.730;2022-09-21T10:58:11;102068.19;;;22.90;73.57
13709;BME280;54933;51.908;7.730;2022-09-21T11:00:45;102067.16;;;22.91;73.52
13709;BME280;54933;51.908;7.730;2022-09-21T11:03:46;102061.72;;;22.91;73.59
13709;BME280;54933;51.908;7.730;2022-09-21T11:06:42;102066.34;;;22.91;73.74
13709;BME280;54933;51.908;7.730;2022-09-21T11:09:15;102062.78;;;22.90;73.85
13709;BME280;54933;51.908;7.730;2022-09-21T11:12:15;102069.03;;;22.91;73.48
13709;BME280;54933;51.908;7.730;2022-09-21T11:14:58;102055.66;;;22.89;73.60
13709;BME280;54933;51.908;7.730;2022-09-21T11:17:38;102061.94;;;22.90;73.61
13709;BME280;54933;51.908;7.730;2022-09-21T11:20:40;102056.50;;;22.90;73.43
13709;BME280;54933;51.908;7.730;2022-09-21T11:26:37;102057.34;;;22.90;73.84
13709;BME280;54933;51.908;7.730;2022-09-21T11:29:11;102053.59;;;22.91;73.80
13709;BME280;54933;51.908;7.730;2022-09-21T11:40:24;102047.78;;;22.94;74.07
13709;BME280;54933;51.908;7.730;2022-09-21T11:45:53;102044.06;;;22.95;74.51
13709;BME280;54933;51.908;7.730;2022-09-21T11:53:47;102048.63;;;22.95;74.59
13709;BME280;54933;51.908;7.730;2022-09-21T12:04:37;102034.88;;;22.96;74.92
13709;BME280;54933;51.908;7.730;2022-09-21T12:10:23;102029.00;;;22.93;73.80
13709;BME280;54933;51.908;7.730;2022-09-21T12:12:53;102031.91;;;22.91;73.65
13709;BME280;54933;51.908;7.730;2022-09-21T12:18:02;102024.44;;;22.93;73.35
13709;BME280;54933;51.908;7.730;2022-09-21T12:20:57;102011.72;;;22.94;73.44
13709;BME280;54933;51.908;7.730;2022-09-21T12:23:37;102010.22;;;22.91;73.28
13709;BME280;54933;51.908;7.730;2022-09-21T12:26:05;102016.50;;;22.92;72.96
13709;BME280;54933;51.908;7.730;2022-09-21T12:29:01;102012.75;;;22.93;72.71
13709;BME280;54933;51.908;7.730;2022-09-21T12:31:35;102011.94;;;22.92;72.84
13709;BME280;54933;51.908;7.730;2022-09-21T12:34:09;102006.84;;;22.82;72.12
13709;BME280;54933;51.908;7.730;2022-09-21T12:36:41;102010.63;;;22.88;72.08
13709;BME280;54933;51.908;7.730;2022-09-21T12:39:19;102003.16;;;22.90;72.28
13709;BME280;54933;51.908;7.730;2022-09-21T12:42:02;102011.94;;;22.92;72.56
13709;BME280;54933;51.908;7.730;2022-09-21T12:44:34;102009.00;;;22.94;72.78
13709;BME280;54933;51.908;7.730;2022-09-21T12:50:14;101998.97;;;22.94;72.99
13709;BME280;54933;51.908;7.730;2022-09-21T12:52:40;102003.38;;;22.95;73.20
13709;BME280;54933;51.908;7.730;2022-09-21T12:55:26;101989.84;;;22.95;73.23
13709;BME280;54933;51.908;7.730;2022-09-21T13:01:01;101996.06;;;22.96;73.33
13709;BME280;54933;51.908;7.730;2022-09-21T13:03:47;101990.66;;;22.96;73.34
13709;BME280;54933;51.908;7.730;2022-09-21T13:09:01;101987.78;;;22.97;73.51
13709;BME280;54933;51.908;7.730;2022-09-21T13:11:30;101979.63;;;22.97;73.51
13709;BME280;54933;51.908;7.730;2022-09-21T13:13:59;101985.06;;;22.97;73.56
13709;BME280;54933;51.908;7.730;2022-09-21T13:16:26;101983.16;;;22.98;73.79
13709;BME280;54933;51.908;7.730;2022-09-21T13:19:13;101979.44;;;22.99;73.90
13709;BME280;54933;51.908;7.730;2022-09-21T13:21:40;101979.44;;;22.99;73.77
13709;BME280;54933;51.908;7.730;2022-09-21T13:24:24;101975.66;;;23.00;74.00
13709;BME280;54933;51.908;7.730;2022-09-21T13:26:53;101972.13;;;22.99;73.71
13709;BME280;54933;51.908;7.730;2022-09-21T13:31:52;101969.41;;;22.99;73.75
13709;BME280;54933;51.908;7.730;2022-09-21T13:39:49;101963.38;;;22.97;73.91
13709;BME280;54933;51.908;7.730;2022-09-21T13:42:47;101960.66;;;22.97;73.86
13709;BME280;54933;51.908;7.730;2022-09-21T13:47:40;101955.25;;;22.97;73.62
13709;BME280;54933;51.908;7.730;2022-09-21T13:50:44;101947.09;;;22.97;73.81
13709;BME280;54933;51.908;7.730;2022-09-21T13:53:19;101954.38;;;22.97;74.03
13709;BME280;54933;51.908;7.730;2022-09-21T13:55:54;101955.25;;;22.97;73.78
13709;BME280;54933;51.908;7.730;2022-09-21T13:58:24;101953.53;;;22.96;73.71
13709;BME280;54933;51.908;7.730;2022-09-21T14:00:53;101950.63;;;22.98;73.82
13709;BME280;54933;51.908;7.730;2022-09-21T14:03:27;101948.97;;;22.97;73.63
13709;BME280;54933;51.908;7.730;2022-09-21T14:08:56;101944.41;;;22.97;73.56
13709;BME280;54933;51.908;7.730;2022-09-21T14:11:36;101941.69;;;22.97;73.41
13709;BME280;54933;51.908;7.730;2022-09-21T14:14:11;101949.59;;;22.99;73.78
13709;BME280;54933;51.908;7.730;2022-09-21T14:24:34;101941.28;;;23.00;73.76
13709;BME280;54933;51.908;7.730;2022-09-21T14:30:01;101928.75;;;22.99;73.63
13709;BME280;54933;51.908;7.730;2022-09-21T14:32:32;101927.72;;;23.00;74.03
13709;BME280;54933;51.908;7.730;2022-09-21T14:35:10;101928.53;;;23.01;73.87
13709;BME280;54933;51.908;7.730;2022-09-21T14:37:40;101925.63;;;23.02;73.69
13709;BME280;54933;51.908;7.730;2022-09-21T14:40:21;101937.31;;;23.03;73.76
13709;BME280;54933;51.908;7.730;2022-09-21T14:42:48;101932.72;;;23.03;73.72
13709;BME280;54933;51.908;7.730;2022-09-21T14:45:16;101929.19;;;23.03;73.92
13709;BME280;54933;51.908;7.730;2022-09-21T14:53:17;101920.19;;;23.02;73.72
13709;BME280;54933;51.908;7.730;2022-09-21T14:56:10;101921.88;;;23.03;73.91
13709;BME280;54933;51.908;7.730;2022-09-21T14:58:56;101917.31;;;23.04;74.10
13709;BME280;54933;51.908;7.730;2022-09-21T15:06:42;101919.19;;;23.03;73.85
13709;BME280;54933;51.908;7.730;2022-09-21T15:10:24;101913.75;;;23.03;74.13
13709;BME280;54933;51.908;7.730;2022-09-21T15:18:17;101898.34;;;23.04;74.28
13709;BME280;54933;51.908;7.730;2022-09-21T15:20:53;101894.78;;;23.03;74.01
13709;BME280;54933;51.908;7.730;2022-09-21T15:23:23;101889.34;;;23.03;74.12
13709;BME280;54933;51.908;7.730;2022-09-21T15:25:54;101894.78;;;23.03;74.38
13709;BME280;54933;51.908;7.730;2022-09-21T15:28:24;101892.91;;;23.04;74.26